Hauptseite
METAR-TAF:

METAR-TAF

Flughäfen :

Lahr, Deutschland

Flughafen Lahr

Breite: 48-22-09N, Länge: 007-49-40E, Höhe: 156 m

Beobachtung

Neuester Wetterbericht von vor 33 Minuten, um 09:20 UTC
Wind 2 kt aus unterschiedlichen Richtungen
Temperatur 20°C
Luftfeuchtigkeit 46%
Luftdruck 1027 hPa
Sichtweite 10 km oder mehr
keine Wolken unter 1500 m und keine Kumulonimbus oder Gewitterwolken

METAR: EDTL 190920Z VRB02KT CAVOK 20/08 Q1027

Zeit: 11:53 (09:53 UTC)

Prognose

Neuester Wetterbericht von vor 1 Stunde und 53 Minuten, um 08:00 UTC
Gültige Prognose vom 19 um 09 UTC bis 19 um 18 UTC
Wind 3 kt aus unterschiedlichen Richtungen
Sichtweite 10 km oder mehr
keine Wolken unter 1500 m und keine Kumulonimbus oder Gewitterwolken

TAF: EDTL 190800Z 1909/1918 VRB03KT CAVOK

Wetterbeobachtungen und Prognosen von mehr als 4000 Flughäfen (METAR und TAF Bericht).

Die verfügbaren Stationen werden durch gelbe und rote Markierungen auf der Karte dargestellt.

Führen Sie die Maus auf sie, um den Namen der Station zu sehen.

Darauf klicken, um die Beobachtung von Wetterbeobachtungen und Prognosen zu sehen.

Um die Karte zu ändern : klicken Sie auf den grünen Tasten mit einem schwarzen Kreuz Zum Vergrößern, auf den grünen Button mit einem Gedankenstrich zu verkleinern, oder auf die grünen Pfeile für benachbarte Karten.


METAR-TAF: